createdAt,value
2018-05-26T00:00:13.330Z,68.2
2018-05-26T00:01:03.955Z,68.2
2018-05-26T00:01:54.000Z,68.2
2018-05-26T00:02:44.073Z,68.2
2018-05-26T00:03:33.847Z,68.2
2018-05-26T00:04:23.915Z,68.2
2018-05-26T00:05:14.033Z,68.2
2018-05-26T00:06:04.340Z,68.1
2018-05-26T00:06:54.110Z,68.1
2018-05-26T00:07:44.219Z,68.1
2018-05-26T00:08:34.218Z,68.1
2018-05-26T00:09:24.371Z,68.1
2018-05-26T00:10:14.484Z,68.1
2018-05-26T00:11:04.440Z,68.1
2018-05-26T00:11:54.777Z,68.1
2018-05-26T00:12:44.851Z,68.1
2018-05-26T00:13:34.908Z,68.1
2018-05-26T00:14:24.732Z,68.1
2018-05-26T00:15:15.047Z,68.1
2018-05-26T00:16:04.830Z,68.1
2018-05-26T00:16:55.177Z,68.1
2018-05-26T00:17:45.007Z,68.1
2018-05-26T00:18:35.306Z,68
2018-05-26T00:19:25.105Z,68
2018-05-26T00:20:15.448Z,68
2018-05-26T00:21:05.470Z,68
2018-05-26T00:21:55.265Z,68
2018-05-26T00:22:45.633Z,68
2018-05-26T00:23:35.704Z,68
2018-05-26T00:24:25.808Z,67.9
2018-05-26T00:25:15.801Z,67.9
2018-05-26T00:26:05.869Z,67.9
2018-05-26T00:26:55.399Z,67.9
2018-05-26T00:27:46.011Z,67.9
2018-05-26T00:28:36.063Z,67.9
2018-05-26T00:29:26.224Z,67.9
2018-05-26T00:30:15.902Z,67.9
2018-05-26T00:31:05.402Z,67.9
2018-05-26T00:31:55.754Z,67.9
2018-05-26T00:32:46.100Z,67.9
2018-05-26T00:33:35.884Z,67.9
2018-05-26T00:34:25.982Z,67.9
2018-05-26T00:35:15.987Z,67.9
2018-05-26T00:36:06.070Z,67.9
2018-05-26T00:36:56.392Z,67.8
2018-05-26T00:37:46.670Z,67.9
2018-05-26T00:38:36.836Z,67.8
2018-05-26T00:39:26.631Z,67.8
2018-05-26T00:40:16.675Z,67.8
2018-05-26T00:41:07.030Z,67.8
2018-05-26T00:41:57.091Z,67.8
2018-05-26T00:42:46.581Z,67.8
2018-05-26T00:43:37.207Z,67.8
2018-05-26T00:44:27.321Z,67.8
2018-05-26T00:45:17.321Z,67.8
2018-05-26T00:46:07.394Z,67.8
2018-05-26T00:46:57.493Z,67.8
2018-05-26T00:47:47.521Z,67.7
2018-05-26T00:48:37.317Z,67.8
2018-05-26T00:49:27.685Z,67.7
2018-05-26T00:50:17.438Z,67.7
2018-05-26T00:51:07.525Z,67.7
2018-05-26T00:51:57.310Z,67.7
2018-05-26T00:52:47.659Z,67.7
2018-05-26T00:53:37.123Z,67.7
2018-05-26T00:54:27.581Z,67.7
2018-05-26T00:55:18.124Z,67.7
2018-05-26T00:56:07.884Z,67.6
2018-05-26T00:56:57.396Z,67.6
2018-05-26T00:57:48.035Z,67.6
2018-05-26T00:58:37.492Z,67.6
2018-05-26T00:59:28.170Z,67.6
2018-05-26T01:00:18.478Z,67.6
2018-05-26T01:01:08.000Z,67.6
2018-05-26T01:01:58.041Z,67.6
2018-05-26T01:02:48.129Z,67.6
2018-05-26T01:03:38.480Z,67.6
2018-05-26T01:04:28.548Z,67.6
2018-05-26T01:05:18.604Z,67.6
2018-05-26T01:06:08.671Z,67.6
2018-05-26T01:06:58.166Z,67.6
2018-05-26T01:07:49.098Z,67.6
2018-05-26T01:08:38.840Z,67.5
2018-05-26T01:09:28.646Z,67.5
2018-05-26T01:10:19.248Z,67.5
2018-05-26T01:11:08.750Z,67.5
2018-05-26T01:11:58.850Z,67.5
2018-05-26T01:12:49.185Z,67.5
2018-05-26T01:13:39.254Z,67.5
2018-05-26T01:14:29.565Z,67.4
2018-05-26T01:15:19.638Z,67.4
2018-05-26T01:16:09.734Z,67.4
2018-05-26T01:16:59.766Z,67.4
2018-05-26T01:17:49.844Z,67.4
2018-05-26T01:18:39.337Z,67.4
2018-05-26T01:19:29.982Z,67.4
2018-05-26T01:20:20.010Z,67.4
2018-05-26T01:21:10.101Z,67.4
2018-05-26T01:22:00.185Z,67.4
2018-05-26T01:22:49.921Z,67.4
2018-05-26T01:23:40.266Z,67.4
2018-05-26T01:24:29.810Z,67.4
2018-05-26T01:25:19.574Z,67.4
2018-05-26T01:26:10.448Z,67.3
2018-05-26T01:27:00.244Z,67.3
2018-05-26T01:27:50.660Z,67.3
2018-05-26T01:28:40.674Z,67.3
2018-05-26T01:29:30.710Z,67.3
2018-05-26T01:30:20.801Z,67.3
2018-05-26T01:31:10.563Z,67.3
2018-05-26T01:32:00.916Z,67.3
2018-05-26T01:32:50.706Z,67.3
2018-05-26T01:33:40.755Z,67.3
2018-05-26T01:34:31.121Z,67.3
2018-05-26T01:35:20.907Z,67.3
2018-05-26T01:36:10.962Z,67.3
2018-05-26T01:37:01.295Z,67.3
2018-05-26T01:37:51.091Z,67.2
2018-05-26T01:38:41.190Z,67.3
2018-05-26T01:39:31.483Z,67.3
2018-05-26T01:40:20.997Z,67.2
2018-05-26T01:41:11.354Z,67.2
2018-05-26T01:42:01.412Z,67.2
2018-05-26T01:42:51.779Z,67.2
2018-05-26T01:43:41.538Z,67.1
2018-05-26T01:44:31.887Z,67.2
2018-05-26T01:45:21.977Z,67.2
2018-05-26T01:46:12.014Z,67.1
2018-05-26T01:47:01.860Z,67.1
2018-05-26T01:47:52.149Z,67.1
2018-05-26T01:48:42.201Z,67.1
2018-05-26T01:49:31.976Z,67.1
2018-05-26T01:50:22.310Z,67.1
2018-05-26T01:51:12.107Z,67.1
2018-05-26T01:52:01.892Z,67.1
2018-05-26T01:52:52.546Z,67.1
2018-05-26T01:53:42.293Z,67.1
2018-05-26T01:54:32.080Z,67.1
2018-05-26T01:55:22.429Z,67.1
2018-05-26T01:56:12.491Z,67
2018-05-26T01:57:02.554Z,67.1
2018-05-26T01:57:52.938Z,67
2018-05-26T01:58:42.126Z,67
2018-05-26T01:59:33.021Z,67
2018-05-26T02:00:22.826Z,67
2018-05-26T02:01:13.170Z,67
2018-05-26T02:02:03.242Z,67
2018-05-26T02:02:52.985Z,66.9
2018-05-26T02:03:43.356Z,67
2018-05-26T02:04:33.174Z,66.9
2018-05-26T02:05:23.208Z,66.9
2018-05-26T02:06:13.281Z,66.9
2018-05-26T02:07:03.335Z,66.9
2018-05-26T02:07:53.120Z,66.9
2018-05-26T02:08:43.456Z,66.9
2018-05-26T02:09:33.254Z,66.9
2018-05-26T02:10:23.291Z,66.9
2018-05-26T02:11:13.961Z,66.9
2018-05-26T02:12:03.776Z,66.9
2018-05-26T02:12:54.045Z,66.9
2018-05-26T02:13:44.125Z,66.8
2018-05-26T02:14:33.922Z,66.9
2018-05-26T02:15:24.251Z,66.9
2018-05-26T02:16:14.055Z,66.8
2018-05-26T02:17:04.091Z,66.8
2018-05-26T02:17:54.497Z,66.8
2018-05-26T02:18:44.257Z,66.8
2018-05-26T02:19:33.785Z,66.8
2018-05-26T02:20:24.648Z,66.8
2018-05-26T02:21:14.683Z,66.8
2018-05-26T02:22:04.772Z,66.8
2018-05-26T02:22:54.879Z,66.8
2018-05-26T02:23:44.906Z,66.8
2018-05-26T02:24:34.963Z,66.8
2018-05-26T02:25:25.042Z,66.8
2018-05-26T02:26:15.071Z,66.8
2018-05-26T02:27:05.201Z,66.8
2018-05-26T02:27:54.651Z,66.7
2018-05-26T02:28:45.263Z,66.7
2018-05-26T02:29:35.372Z,66.7
2018-05-26T02:30:25.412Z,66.7
2018-05-26T02:31:14.915Z,66.7
2018-05-26T02:32:04.979Z,66.7
2018-05-26T02:32:55.323Z,66.7
2018-05-26T02:33:45.384Z,66.6
2018-05-26T02:34:35.201Z,66.7
2018-05-26T02:35:25.776Z,66.7
2018-05-26T02:36:15.896Z,66.6
2018-05-26T02:37:05.955Z,66.6
2018-05-26T02:37:55.704Z,66.6
2018-05-26T02:38:45.799Z,66.6
2018-05-26T02:39:35.520Z,66.6
2018-05-26T02:40:25.960Z,66.6
2018-05-26T02:41:16.245Z,66.6
2018-05-26T02:42:06.424Z,66.6
2018-05-26T02:42:55.540Z,66.6
2018-05-26T02:43:46.480Z,66.6
2018-05-26T02:44:36.219Z,66.6
2018-05-26T02:45:25.703Z,66.6
2018-05-26T02:46:16.633Z,66.6
2018-05-26T02:47:06.698Z,66.5
2018-05-26T02:47:56.477Z,66.6
2018-05-26T02:48:46.831Z,66.5
2018-05-26T02:49:36.894Z,66.5
2018-05-26T02:50:26.664Z,66.5
2018-05-26T02:51:16.745Z,66.5
2018-05-26T02:52:07.118Z,66.5
2018-05-26T02:52:57.144Z,66.5
2018-05-26T02:53:46.642Z,66.4
2018-05-26T02:54:37.027Z,66.4
2018-05-26T02:55:27.351Z,66.4
2018-05-26T02:56:16.836Z,66.4
2018-05-26T02:57:07.496Z,66.4
2018-05-26T02:57:57.246Z,66.4
2018-05-26T02:58:47.034Z,66.4
2018-05-26T02:59:37.638Z,66.4
2018-05-26T03:00:27.709Z,66.4
2018-05-26T03:01:17.793Z,66.4
2018-05-26T03:02:07.878Z,66.4
2018-05-26T03:02:57.612Z,66.4
2018-05-26T03:03:47.998Z,66.4
2018-05-26T03:04:38.041Z,66.4
2018-05-26T03:05:28.093Z,66.4
2018-05-26T03:06:17.883Z,66.3
2018-05-26T03:07:08.211Z,66.3
2018-05-26T03:07:58.299Z,66.3
2018-05-26T03:08:48.071Z,66.3
2018-05-26T03:09:38.115Z,66.3
2018-05-26T03:10:28.207Z,66.3
2018-05-26T03:11:18.551Z,66.3
2018-05-26T03:12:08.043Z,66.3
2018-05-26T03:12:58.670Z,66.3
2018-05-26T03:13:48.168Z,66.3
2018-05-26T03:14:38.802Z,66.3
2018-05-26T03:15:28.851Z,66.3
2018-05-26T03:16:18.651Z,66.3
2018-05-26T03:17:08.712Z,66.3
2018-05-26T03:17:59.032Z,66.3
2018-05-26T03:18:48.844Z,66.2
2018-05-26T03:19:38.902Z,66.2
2018-05-26T03:20:28.971Z,66.2
2018-05-26T03:21:19.010Z,66.2
2018-05-26T03:22:09.090Z,66.2
2018-05-26T03:22:59.441Z,66.2
2018-05-26T03:23:49.479Z,66.2
2018-05-26T03:24:39.276Z,66.2
2018-05-26T03:25:29.131Z,66.1
2018-05-26T03:26:19.177Z,66.1
2018-05-26T03:27:09.758Z,66.1
2018-05-26T03:27:59.536Z,66.1
2018-05-26T03:28:49.854Z,66.1
2018-05-26T03:29:39.946Z,66.1
2018-05-26T03:30:30.129Z,66.1
2018-05-26T03:31:20.063Z,66.1
2018-05-26T03:32:10.131Z,66.1
2018-05-26T03:32:59.420Z,66.1
2018-05-26T03:33:49.499Z,66.1
2018-05-26T03:34:39.565Z,66.1
2018-05-26T03:35:29.892Z,66.1
2018-05-26T03:36:20.263Z,66.1
2018-05-26T03:37:09.480Z,66.1
2018-05-26T03:38:00.098Z,66
2018-05-26T03:38:50.656Z,66
2018-05-26T03:39:39.961Z,66
2018-05-26T03:40:30.782Z,66
2018-05-26T03:41:20.577Z,66
2018-05-26T03:42:10.610Z,66
2018-05-26T03:43:01.004Z,65.9
2018-05-26T03:43:50.739Z,66
2018-05-26T03:44:40.795Z,65.9
2018-05-26T03:45:31.165Z,65.9
2018-05-26T03:46:20.679Z,65.9
2018-05-26T03:47:11.024Z,65.9
2018-05-26T03:48:01.357Z,65.9
2018-05-26T03:48:50.874Z,65.9
2018-05-26T03:49:40.716Z,65.9
2018-05-26T03:50:31.269Z,65.9
2018-05-26T03:51:21.039Z,65.9
2018-05-26T03:52:11.387Z,65.9
2018-05-26T03:53:01.733Z,65.9
2018-05-26T03:53:51.220Z,65.9
2018-05-26T03:54:41.551Z,65.9
2018-05-26T03:55:31.916Z,65.9
2018-05-26T03:56:22.002Z,65.9
2018-05-26T03:57:11.838Z,65.9
2018-05-26T03:58:02.114Z,65.8
2018-05-26T03:58:52.197Z,65.8
2018-05-26T03:59:42.286Z,65.8
2018-05-26T04:00:32.277Z,65.8
2018-05-26T04:01:22.365Z,65.8
2018-05-26T04:02:12.416Z,65.8
2018-05-26T04:03:01.928Z,65.8
2018-05-26T04:03:52.266Z,65.8
2018-05-26T04:04:42.600Z,65.8
2018-05-26T04:05:32.663Z,65.8
2018-05-26T04:06:22.482Z,65.8
2018-05-26T04:07:12.232Z,65.8
2018-05-26T04:08:02.623Z,65.8
2018-05-26T04:08:52.947Z,65.8
2018-05-26T04:09:42.469Z,65.8
2018-05-26T04:10:32.482Z,65.7
2018-05-26T04:11:23.359Z,65.8
2018-05-26T04:12:13.184Z,65.7
2018-05-26T04:13:02.989Z,65.7
2018-05-26T04:13:53.038Z,65.7
2018-05-26T04:14:43.114Z,65.7
2018-05-26T04:15:33.442Z,65.7
2018-05-26T04:16:23.545Z,65.6
2018-05-26T04:17:13.612Z,65.6
2018-05-26T04:18:03.645Z,65.6
2018-05-26T04:18:53.149Z,65.6
2018-05-26T04:19:43.792Z,65.6
2018-05-26T04:20:33.857Z,65.6
2018-05-26T04:21:23.914Z,65.6
2018-05-26T04:22:13.409Z,65.6
2018-05-26T04:23:03.776Z,65.6
2018-05-26T04:23:54.110Z,65.6
2018-05-26T04:24:44.168Z,65.6
2018-05-26T04:25:34.209Z,65.6
2018-05-26T04:26:24.016Z,65.6
2018-05-26T04:27:14.336Z,65.6
2018-05-26T04:28:04.153Z,65.6
2018-05-26T04:28:54.208Z,65.5
2018-05-26T04:29:44.261Z,65.6
2018-05-26T04:30:34.608Z,65.5
2018-05-26T04:31:24.685Z,65.5
2018-05-26T04:32:14.462Z,65.5
2018-05-26T04:33:04.249Z,65.5
2018-05-26T04:33:54.309Z,65.5
2018-05-26T04:34:44.920Z,65.5
2018-05-26T04:35:34.798Z,65.5
2018-05-26T04:36:24.773Z,65.4
2018-05-26T04:37:15.133Z,65.4
2018-05-26T04:38:05.198Z,65.4
2018-05-26T04:38:55.009Z,65.4
2018-05-26T04:39:45.318Z,65.4
2018-05-26T04:40:35.373Z,65.4
2018-05-26T04:41:25.500Z,65.4
2018-05-26T04:42:15.312Z,65.4
2018-05-26T04:43:05.608Z,65.4
2018-05-26T04:43:55.378Z,65.4
2018-05-26T04:44:45.135Z,65.4
2018-05-26T04:45:35.753Z,65.4
2018-05-26T04:46:25.854Z,65.4
2018-05-26T04:47:15.900Z,65.4
2018-05-26T04:48:05.974Z,65.3
2018-05-26T04:48:55.767Z,65.3
2018-05-26T04:49:45.809Z,65.3
2018-05-26T04:50:36.130Z,65.3
2018-05-26T04:51:26.229Z,65.3
2018-05-26T04:52:15.976Z,65.3
2018-05-26T04:53:06.340Z,65.3
2018-05-26T04:53:56.384Z,65.3
2018-05-26T04:54:46.441Z,65.3
2018-05-26T04:55:36.544Z,65.3
2018-05-26T04:56:26.570Z,65.3
2018-05-26T04:57:16.668Z,65.3
2018-05-26T04:58:06.725Z,65.3
2018-05-26T04:58:56.764Z,65.3
2018-05-26T04:59:46.564Z,65.3
2018-05-26T05:00:36.647Z,65.2
2018-05-26T05:01:27.007Z,65.3
2018-05-26T05:02:17.048Z,65.2
2018-05-26T05:03:05.993Z,65.2
2018-05-26T05:03:56.891Z,65.2
2018-05-26T05:04:46.959Z,65.2
2018-05-26T05:05:37.129Z,65.2
2018-05-26T05:06:27.373Z,65.1
2018-05-26T05:07:17.179Z,65.2
2018-05-26T05:08:07.196Z,65.2
2018-05-26T05:08:57.287Z,65.2
2018-05-26T05:09:47.610Z,65.1
2018-05-26T05:10:37.199Z,65.1
2018-05-26T05:11:27.263Z,65.1
2018-05-26T05:12:17.343Z,65.1
2018-05-26T05:13:06.571Z,65.1
2018-05-26T05:13:57.172Z,65.1
2018-05-26T05:14:47.525Z,65.1
2018-05-26T05:15:37.596Z,65.1
2018-05-26T05:16:27.392Z,65.1
2018-05-26T05:17:17.743Z,65.1
2018-05-26T05:18:07.788Z,65.1
2018-05-26T05:18:58.049Z,65.1
2018-05-26T05:19:48.412Z,65
2018-05-26T05:20:38.445Z,65
2018-05-26T05:21:27.667Z,65.1
2018-05-26T05:22:18.608Z,65
2018-05-26T05:23:08.637Z,65
2018-05-26T05:23:58.694Z,65
2018-05-26T05:24:48.787Z,65
2018-05-26T05:25:38.832Z,65
2018-05-26T05:26:28.633Z,65
2018-05-26T05:27:18.955Z,64.9
2018-05-26T05:28:09.038Z,64.9
2018-05-26T05:28:59.081Z,64.9
2018-05-26T05:29:48.986Z,64.9
2018-05-26T05:30:38.966Z,64.9
2018-05-26T05:31:29.282Z,64.9
2018-05-26T05:32:19.081Z,64.9
2018-05-26T05:33:08.877Z,64.9
2018-05-26T05:33:59.194Z,64.9
2018-05-26T05:34:49.565Z,64.9
2018-05-26T05:35:39.333Z,64.9
2018-05-26T05:36:29.392Z,64.9
2018-05-26T05:37:19.155Z,64.9
2018-05-26T05:38:09.826Z,64.9
2018-05-26T05:38:59.345Z,64.9
2018-05-26T05:39:49.649Z,64.8
2018-05-26T05:40:39.986Z,64.8
2018-05-26T05:41:29.797Z,64.8
2018-05-26T05:42:19.855Z,64.8
2018-05-26T05:43:10.190Z,64.8
2018-05-26T05:44:00.271Z,64.8
2018-05-26T05:44:50.307Z,64.8
2018-05-26T05:45:40.386Z,64.8
2018-05-26T05:46:30.436Z,64.8
2018-05-26T05:47:20.500Z,64.8
2018-05-26T05:48:10.569Z,64.8
2018-05-26T05:49:00.108Z,64.8
2018-05-26T05:49:49.603Z,64.8
2018-05-26T05:50:40.802Z,64.8
2018-05-26T05:51:30.552Z,64.7
2018-05-26T05:52:20.942Z,64.7
2018-05-26T05:53:10.685Z,64.7
2018-05-26T05:54:00.757Z,64.7
2018-05-26T05:54:51.103Z,64.7
2018-05-26T05:55:40.891Z,64.7
2018-05-26T05:56:31.204Z,64.6
2018-05-26T05:57:20.717Z,64.6
2018-05-26T05:58:11.368Z,64.6
2018-05-26T05:59:01.136Z,64.6
2018-05-26T05:59:51.476Z,64.6
2018-05-26T06:00:41.572Z,64.6
2018-05-26T06:01:31.048Z,64.6
2018-05-26T06:02:21.674Z,64.6
2018-05-26T06:03:11.148Z,64.6
2018-05-26T06:04:01.809Z,64.6
2018-05-26T06:04:51.301Z,64.6
2018-05-26T06:05:41.920Z,64.6
2018-05-26T06:06:31.982Z,64.6
2018-05-26T06:07:22.104Z,64.6
2018-05-26T06:08:12.108Z,64.6
2018-05-26T06:09:01.892Z,64.6
2018-05-26T06:09:52.245Z,64.6
2018-05-26T06:10:42.024Z,64.5
2018-05-26T06:11:32.107Z,64.5
2018-05-26T06:12:21.869Z,64.5
2018-05-26T06:13:12.503Z,64.5
2018-05-26T06:14:02.297Z,64.5
2018-05-26T06:14:52.514Z,64.5
2018-05-26T06:15:42.725Z,64.5
2018-05-26T06:16:32.488Z,64.5
2018-05-26T06:17:22.511Z,64.4
2018-05-26T06:18:12.866Z,64.4
2018-05-26T06:19:02.957Z,64.4
2018-05-26T06:19:53.040Z,64.4
2018-05-26T06:20:43.125Z,64.4
2018-05-26T06:21:32.860Z,64.4
2018-05-26T06:22:22.947Z,64.4
2018-05-26T06:23:13.272Z,64.4
2018-05-26T06:24:02.462Z,64.4
2018-05-26T06:24:52.852Z,64.4
2018-05-26T06:25:43.442Z,64.4
2018-05-26T06:26:33.936Z,64.4
2018-05-26T06:27:23.043Z,64.4
2018-05-26T06:28:13.640Z,64.4
2018-05-26T06:29:03.444Z,64.4
2018-05-26T06:29:53.796Z,64.4
2018-05-26T06:30:43.839Z,64.4
2018-05-26T06:31:33.901Z,64.4
2018-05-26T06:32:23.702Z,64.3
2018-05-26T06:33:14.022Z,64.3
2018-05-26T06:34:04.157Z,64.3
2018-05-26T06:34:53.888Z,64.3
2018-05-26T06:35:43.973Z,64.3
2018-05-26T06:36:34.031Z,64.3
2018-05-26T06:37:24.361Z,64.3
2018-05-26T06:38:14.416Z,64.3
2018-05-26T06:39:04.211Z,64.3
2018-05-26T06:39:56.195Z,64.3
2018-05-26T06:40:45.979Z,64.3
2018-05-26T06:41:36.383Z,64.3
2018-05-26T06:42:26.400Z,64.3
2018-05-26T06:43:16.797Z,64.3
2018-05-26T06:44:05.543Z,64.3
2018-05-26T06:44:55.765Z,64.3
2018-05-26T06:45:46.924Z,64.2
2018-05-26T06:46:36.994Z,64.2
2018-05-26T06:47:26.508Z,64.2
2018-05-26T06:48:16.377Z,64.2
2018-05-26T06:49:06.666Z,64.2
2018-05-26T06:49:56.394Z,64.1
2018-05-26T06:50:47.427Z,64.1
2018-05-26T06:51:37.391Z,64.1
2018-05-26T06:52:27.159Z,64.1
2018-05-26T06:53:17.531Z,64.1
2018-05-26T06:54:06.908Z,64.1
2018-05-26T06:54:57.398Z,64.1
2018-05-26T06:55:47.176Z,64.1
2018-05-26T06:56:36.994Z,64.1
2018-05-26T06:57:27.829Z,64.1
2018-05-26T06:58:17.356Z,64.1
2018-05-26T06:59:07.420Z,64.1
2018-05-26T06:59:57.478Z,64.1
2018-05-26T07:00:47.805Z,64.1
2018-05-26T07:01:37.868Z,64.1
2018-05-26T07:02:27.941Z,64.1
2018-05-26T07:03:17.721Z,64.1
2018-05-26T07:04:08.363Z,64
2018-05-26T07:04:57.895Z,64
2018-05-26T07:05:47.907Z,64
2018-05-26T07:06:38.580Z,64
2018-05-26T07:07:28.312Z,64
2018-05-26T07:08:18.421Z,64
2018-05-26T07:09:08.465Z,64
2018-05-26T07:09:58.820Z,63.9
2018-05-26T07:10:48.038Z,63.9
2018-05-26T07:11:38.473Z,63.9
2018-05-26T07:12:28.725Z,63.9
2018-05-26T07:13:18.789Z,63.9
2018-05-26T07:14:08.314Z,63.9
2018-05-26T07:14:58.403Z,63.9
2018-05-26T07:15:48.669Z,63.9
2018-05-26T07:16:39.042Z,63.9
2018-05-26T07:17:29.377Z,63.9
2018-05-26T07:18:18.593Z,63.9
2018-05-26T07:19:08.972Z,63.9
2018-05-26T07:19:58.733Z,63.9
2018-05-26T07:20:49.399Z,63.9
2018-05-26T07:21:39.441Z,63.8
2018-05-26T07:22:29.502Z,63.8
2018-05-26T07:23:19.859Z,63.8
2018-05-26T07:24:09.879Z,63.8
2018-05-26T07:24:59.971Z,63.8
2018-05-26T07:25:49.759Z,63.8
2018-05-26T07:26:39.531Z,63.8
2018-05-26T07:27:29.431Z,63.8
2018-05-26T07:28:19.674Z,63.8
2018-05-26T07:29:09.720Z,63.8
2018-05-26T07:30:00.323Z,63.8
2018-05-26T07:30:50.451Z,63.8
2018-05-26T07:31:40.216Z,63.8
2018-05-26T07:32:30.551Z,63.8
2018-05-26T07:33:20.085Z,63.8
2018-05-26T07:34:10.393Z,63.8
2018-05-26T07:35:00.467Z,63.8
2018-05-26T07:35:50.525Z,63.7
2018-05-26T07:36:40.906Z,63.7
2018-05-26T07:37:30.820Z,63.7
2018-05-26T07:38:20.772Z,63.7
2018-05-26T07:39:10.580Z,63.7
2018-05-26T07:40:00.877Z,63.7
2018-05-26T07:40:51.192Z,63.7
2018-05-26T07:41:41.252Z,63.7
2018-05-26T07:42:31.046Z,63.7
2018-05-26T07:43:20.226Z,63.7
2018-05-26T07:44:10.489Z,63.7
2018-05-26T07:45:01.504Z,63.6
2018-05-26T07:45:51.282Z,63.6
2018-05-26T07:46:40.504Z,63.6
2018-05-26T07:47:30.947Z,63.6
2018-05-26T07:48:21.199Z,63.6
2018-05-26T07:49:11.821Z,63.6
2018-05-26T07:50:01.887Z,63.6
2018-05-26T07:50:51.395Z,63.6
2018-05-26T07:51:42.075Z,63.6
2018-05-26T07:52:31.824Z,63.6
2018-05-26T07:53:21.944Z,63.6
2018-05-26T07:54:12.265Z,63.6
2018-05-26T07:55:02.271Z,63.6
2018-05-26T07:55:52.376Z,63.6
2018-05-26T07:56:42.452Z,63.6
2018-05-26T07:57:32.193Z,63.6
2018-05-26T07:58:22.808Z,63.6
2018-05-26T07:59:12.415Z,63.5
2018-05-26T08:00:02.233Z,63.5
2018-05-26T08:00:52.709Z,63.5
2018-05-26T08:01:42.794Z,63.5
2018-05-26T08:02:32.866Z,63.5
2018-05-26T08:03:22.665Z,63.5
2018-05-26T08:04:12.725Z,63.5
2018-05-26T08:05:03.073Z,63.4
2018-05-26T08:05:52.826Z,63.4
2018-05-26T08:06:42.909Z,63.4
2018-05-26T08:07:32.418Z,63.4
2018-05-26T08:08:22.761Z,63.4
2018-05-26T08:09:13.119Z,63.4
2018-05-26T08:10:02.950Z,63.4
2018-05-26T08:10:53.897Z,63.4
2018-05-26T08:11:43.366Z,63.4
2018-05-26T08:12:33.388Z,63.4
2018-05-26T08:13:23.710Z,63.4
2018-05-26T08:14:13.498Z,63.4
2018-05-26T08:15:03.600Z,63.4
2018-05-26T08:15:54.143Z,63.4
2018-05-26T08:16:43.151Z,63.4
2018-05-26T08:17:33.695Z,63.4
2018-05-26T08:18:23.550Z,63.4
2018-05-26T08:19:13.641Z,63.4
2018-05-26T08:20:03.966Z,63.4
2018-05-26T08:20:54.021Z,63.4
2018-05-26T08:21:43.808Z,63.4
2018-05-26T08:22:33.869Z,63.4
2018-05-26T08:23:23.946Z,63.5
2018-05-26T08:24:14.120Z,63.6
2018-05-26T08:25:04.348Z,63.6
2018-05-26T08:25:54.177Z,63.7
2018-05-26T08:26:44.525Z,63.8
2018-05-26T08:27:34.249Z,63.9
2018-05-26T08:28:24.348Z,63.9
2018-05-26T08:29:14.390Z,64
2018-05-26T08:30:04.208Z,64
2018-05-26T08:30:54.848Z,64.1
2018-05-26T08:31:44.574Z,64.2
2018-05-26T08:32:35.272Z,64.2
2018-05-26T08:33:25.006Z,64.3
2018-05-26T08:34:15.036Z,64.4
2018-05-26T08:35:04.917Z,64.5
2018-05-26T08:35:55.468Z,64.6
2018-05-26T08:36:44.987Z,64.6
2018-05-26T08:37:35.059Z,64.7
2018-05-26T08:38:25.121Z,64.8
2018-05-26T08:39:14.317Z,64.9
2018-05-26T08:40:05.800Z,64.9
2018-05-26T08:40:55.574Z,65.1
2018-05-26T08:41:45.654Z,65.1
2018-05-26T08:42:35.716Z,65.2
2018-05-26T08:43:25.787Z,65.3
2018-05-26T08:44:15.310Z,65.3
2018-05-26T08:45:05.926Z,65.4
2018-05-26T08:45:55.774Z,65.4
2018-05-26T08:46:45.526Z,65.5
2018-05-26T08:47:36.093Z,65.7
2018-05-26T08:48:26.170Z,65.8
2018-05-26T08:49:15.994Z,65.9
2018-05-26T08:50:06.040Z,65.9
2018-05-26T08:50:56.061Z,66
2018-05-26T08:51:46.512Z,66.1
2018-05-26T08:52:36.809Z,66.2
2018-05-26T08:53:26.272Z,66.3
2018-05-26T08:54:16.339Z,66.3
2018-05-26T08:55:06.696Z,66.4
2018-05-26T08:55:57.035Z,66.4
2018-05-26T08:56:47.097Z,66.5
2018-05-26T08:57:36.026Z,66.5
2018-05-26T08:58:26.685Z,66.6
2018-05-26T08:59:17.019Z,66.6
2018-05-26T09:00:07.378Z,66.6
2018-05-26T09:00:57.475Z,66.8
2018-05-26T09:01:47.223Z,66.8
2018-05-26T09:02:37.246Z,66.8
2018-05-26T09:03:27.319Z,66.9
2018-05-26T09:04:17.430Z,66.9
2018-05-26T09:05:07.193Z,66.9
2018-05-26T09:05:56.994Z,66.9
2018-05-26T09:06:46.844Z,66.9
2018-05-26T09:07:37.368Z,67
2018-05-26T09:08:27.476Z,66.9
2018-05-26T09:09:18.058Z,67
2018-05-26T09:10:07.281Z,67
2018-05-26T09:10:57.930Z,67
2018-05-26T09:11:47.986Z,67
2018-05-26T09:12:37.777Z,67
2018-05-26T09:13:27.563Z,67
2018-05-26T09:14:17.639Z,67
2018-05-26T09:15:08.247Z,67.1
2018-05-26T09:15:58.597Z,67.1
2018-05-26T09:16:48.373Z,67.2
2018-05-26T09:17:38.236Z,67.2
2018-05-26T09:18:28.792Z,67.3
2018-05-26T09:19:18.868Z,67.3
2018-05-26T09:20:08.891Z,67.3
2018-05-26T09:20:58.702Z,67.4
2018-05-26T09:21:48.734Z,67.4
2018-05-26T09:22:38.093Z,67.4
2018-05-26T09:23:29.148Z,67.4
2018-05-26T09:24:18.985Z,67.5
2018-05-26T09:25:09.438Z,67.5
2018-05-26T09:25:58.430Z,67.5
2018-05-26T09:26:49.187Z,67.5
2018-05-26T09:27:38.952Z,67.5
2018-05-26T09:28:29.271Z,67.5
2018-05-26T09:29:19.362Z,67.6
2018-05-26T09:30:09.455Z,67.6
2018-05-26T09:30:59.749Z,67.6
2018-05-26T09:31:49.067Z,67.7
2018-05-26T09:32:39.593Z,67.7
2018-05-26T09:33:29.694Z,67.8
2018-05-26T09:34:20.026Z,67.8
2018-05-26T09:35:10.076Z,67.9
2018-05-26T09:35:59.872Z,67.9
2018-05-26T09:36:50.259Z,68
2018-05-26T09:37:39.779Z,68.1
2018-05-26T09:38:30.371Z,68.1
2018-05-26T09:39:20.162Z,68.3
2018-05-26T09:40:10.144Z,68.3
2018-05-26T09:41:00.032Z,68.4
2018-05-26T09:41:50.345Z,68.4
2018-05-26T09:42:40.667Z,68.5
2018-05-26T09:43:30.476Z,68.6
2018-05-26T09:44:20.866Z,68.7
2018-05-26T09:45:10.878Z,68.8
2018-05-26T09:46:00.363Z,68.9
2018-05-26T09:46:50.995Z,68.9
2018-05-26T09:47:41.109Z,69
2018-05-26T09:48:31.125Z,69.1
2018-05-26T09:49:20.918Z,69.2
2018-05-26T09:50:10.977Z,69.3
2018-05-26T09:51:01.033Z,69.4
2018-05-26T09:51:51.101Z,69.4
2018-05-26T09:52:41.430Z,69.6
2018-05-26T09:53:31.238Z,69.7
2018-05-26T09:54:21.300Z,69.8
2018-05-26T09:55:11.648Z,69.8
2018-05-26T09:56:02.189Z,69.9
2018-05-26T09:56:51.818Z,70
2018-05-26T09:57:41.560Z,70.1
2018-05-26T09:58:31.906Z,70.1
2018-05-26T09:59:21.440Z,70.2
2018-05-26T10:00:11.479Z,70.3
2018-05-26T10:01:01.861Z,70.4
2018-05-26T10:01:52.218Z,70.5
2018-05-26T10:02:41.956Z,70.6
2018-05-26T10:03:32.295Z,70.8
2018-05-26T10:04:22.318Z,70.8
2018-05-26T10:05:12.442Z,70.9
2018-05-26T10:06:01.654Z,71
2018-05-26T10:06:52.087Z,71
2018-05-26T10:07:42.365Z,71.1
2018-05-26T10:08:32.692Z,71.1
2018-05-26T10:09:22.730Z,71.2
2018-05-26T10:10:12.905Z,71.2
2018-05-26T10:11:02.975Z,71.3
2018-05-26T10:11:52.700Z,71.3
2018-05-26T10:12:42.834Z,71.3
2018-05-26T10:13:33.270Z,71.3
2018-05-26T10:14:23.170Z,71.3
2018-05-26T10:15:12.967Z,71.3
2018-05-26T10:16:03.299Z,71.3
2018-05-26T10:16:52.806Z,71.4
2018-05-26T10:17:43.136Z,71.4
2018-05-26T10:18:32.940Z,71.4
2018-05-26T10:19:22.992Z,71.4
2018-05-26T10:20:12.782Z,71.4
2018-05-26T10:21:03.679Z,71.5
2018-05-26T10:21:53.487Z,71.6
2018-05-26T10:22:43.516Z,71.6
2018-05-26T10:23:33.319Z,71.6
2018-05-26T10:24:23.721Z,71.7
2018-05-26T10:25:13.444Z,71.8
2018-05-26T10:26:04.062Z,71.9
2018-05-26T10:26:53.614Z,71.9
2018-05-26T10:27:44.204Z,72
2018-05-26T10:28:34.336Z,72
2018-05-26T10:29:24.317Z,72
2018-05-26T10:30:14.082Z,72.1
2018-05-26T10:31:03.903Z,72.1
2018-05-26T10:31:54.475Z,72.1
2018-05-26T10:32:44.616Z,72.1
2018-05-26T10:33:34.383Z,72.1
2018-05-26T10:34:24.727Z,72.2
2018-05-26T10:35:14.813Z,72.2
2018-05-26T10:36:04.619Z,72.2
2018-05-26T10:36:54.602Z,72.3
2018-05-26T10:37:44.976Z,72.3
2018-05-26T10:38:35.019Z,72.3
2018-05-26T10:39:25.083Z,72.3
2018-05-26T10:40:14.904Z,72.3
2018-05-26T10:41:04.962Z,72.3
2018-05-26T10:41:53.385Z,72.3
2018-05-26T10:42:42.877Z,72.3
2018-05-26T10:43:33.485Z,72.3
2018-05-26T10:44:23.573Z,72.3
2018-05-26T10:45:13.346Z,72.3
2018-05-26T10:46:03.708Z,72.4
2018-05-26T10:46:53.767Z,72.4
2018-05-26T10:47:45.784Z,72.4
2018-05-26T10:48:35.527Z,72.4
2018-05-26T10:49:25.912Z,72.4
2018-05-26T10:50:15.932Z,72.5
2018-05-26T10:51:05.734Z,72.5
2018-05-26T10:51:55.813Z,72.4
2018-05-26T10:52:45.877Z,72.5
2018-05-26T10:53:36.208Z,72.6
2018-05-26T10:54:26.291Z,72.6
2018-05-26T10:55:16.329Z,72.6
2018-05-26T10:56:06.394Z,72.6
2018-05-26T10:56:56.459Z,72.7
2018-05-26T10:57:45.673Z,72.8
2018-05-26T10:58:36.038Z,72.8
2018-05-26T10:59:26.678Z,72.8
2018-05-26T11:00:16.264Z,72.9
2018-05-26T11:01:06.834Z,72.9
2018-05-26T11:01:56.863Z,72.9
2018-05-26T11:02:44.708Z,73
2018-05-26T11:03:34.221Z,73
2018-05-26T11:04:25.360Z,73.1
2018-05-26T11:05:15.192Z,73.1
2018-05-26T11:06:05.280Z,73.1
2018-05-26T11:06:55.385Z,73.1
2018-05-26T11:07:45.390Z,73.1
2018-05-26T11:08:34.611Z,73.1
2018-05-26T11:09:25.561Z,73.1